createdAt,value
2022-10-18T00:02:31.432Z,16.33
2022-10-18T00:07:33.316Z,16.42
2022-10-18T00:12:36.065Z,16.36
2022-10-18T00:17:38.607Z,16.40
2022-10-18T00:22:41.200Z,16.24
2022-10-18T00:27:42.733Z,16.25
2022-10-18T00:32:44.235Z,16.27
2022-10-18T00:37:45.742Z,16.17
2022-10-18T00:42:47.240Z,16.20
2022-10-18T00:47:53.772Z,16.14
2022-10-18T00:53:00.326Z,16.00
2022-10-18T00:58:02.261Z,16.07
2022-10-18T01:03:03.768Z,15.92
2022-10-18T01:08:35.175Z,15.88
2022-10-18T01:14:02.631Z,15.79
2022-10-18T01:19:17.928Z,15.76
2022-10-18T01:24:41.079Z,15.87
2022-10-18T01:30:00.929Z,15.79
2022-10-18T01:35:07.020Z,15.87
2022-10-18T01:40:09.515Z,15.75
2022-10-18T01:45:11.722Z,15.69
2022-10-18T01:50:13.554Z,15.41
2022-10-18T01:55:15.356Z,15.65
2022-10-18T02:00:19.554Z,15.49
2022-10-18T02:05:30.836Z,15.77
2022-10-18T02:10:41.890Z,15.65
2022-10-18T02:15:47.463Z,15.60
2022-10-18T02:20:49.187Z,15.64
2022-10-18T02:25:51.020Z,15.53
2022-10-18T02:31:14.210Z,15.40
2022-10-18T02:36:22.594Z,15.33
2022-10-18T02:41:26.017Z,15.45
2022-10-18T02:51:34.159Z,15.15
2022-10-18T02:56:36.123Z,15.42
2022-10-18T03:01:37.687Z,15.20
2022-10-18T03:06:39.201Z,14.95
2022-10-18T03:11:40.693Z,15.27
2022-10-18T03:16:42.216Z,15.13
2022-10-18T03:21:43.719Z,15.20
2022-10-18T03:26:45.195Z,15.13
2022-10-18T03:31:46.765Z,14.71
2022-10-18T03:36:48.280Z,14.97
2022-10-18T03:41:50.538Z,14.65
2022-10-18T03:46:52.058Z,14.98
2022-10-18T03:51:53.620Z,15.03
2022-10-18T03:56:55.241Z,15.21
2022-10-18T04:01:56.925Z,14.91
2022-10-18T04:06:58.461Z,15.12
2022-10-18T04:11:59.996Z,14.88
2022-10-18T04:17:01.520Z,14.84
2022-10-18T04:22:03.087Z,15.15
2022-10-18T04:27:05.356Z,15.20
2022-10-18T04:32:06.854Z,15.24
2022-10-18T04:37:08.368Z,15.25
2022-10-18T04:42:09.881Z,15.32
2022-10-18T04:47:11.414Z,15.29
2022-10-18T04:52:13.384Z,15.34
2022-10-18T04:57:14.940Z,15.02
2022-10-18T05:02:16.458Z,15.21
2022-10-18T05:07:18.027Z,15.32
2022-10-18T05:12:19.535Z,15.36
2022-10-18T05:17:21.083Z,15.36
2022-10-18T05:22:22.591Z,15.35
2022-10-18T05:27:24.079Z,15.50
2022-10-18T05:32:25.614Z,15.49
2022-10-18T05:37:28.442Z,15.42
2022-10-18T05:42:30.317Z,15.47
2022-10-18T05:47:32.229Z,15.33
2022-10-18T05:52:34.150Z,15.30
2022-10-18T05:57:35.919Z,15.33
2022-10-18T06:02:37.503Z,15.44
2022-10-18T06:07:38.993Z,15.49
2022-10-18T06:12:40.547Z,15.37
2022-10-18T06:17:42.084Z,15.47
2022-10-18T06:22:43.577Z,15.39
2022-10-18T06:27:45.086Z,15.56
2022-10-18T06:32:46.702Z,15.63
2022-10-18T06:37:48.354Z,15.62
2022-10-18T06:43:00.011Z,15.61
2022-10-18T06:48:07.610Z,15.53
2022-10-18T06:53:09.745Z,15.65
2022-10-18T06:58:11.256Z,15.59
2022-10-18T07:03:12.861Z,15.58
2022-10-18T07:08:14.510Z,15.79
2022-10-18T07:13:33.089Z,15.62
2022-10-18T07:18:36.192Z,15.65
2022-10-18T07:23:39.812Z,15.72
2022-10-18T07:28:42.312Z,15.77
2022-10-18T07:33:43.890Z,15.80
2022-10-18T07:38:45.386Z,15.85
2022-10-18T07:43:48.964Z,15.84
2022-10-18T07:48:50.819Z,15.94
2022-10-18T07:53:52.436Z,15.96
2022-10-18T07:58:55.961Z,15.90
2022-10-18T08:04:03.253Z,15.96
2022-10-18T08:09:07.757Z,15.97
2022-10-18T08:14:09.245Z,15.94
2022-10-18T08:19:10.785Z,15.91
2022-10-18T08:24:12.293Z,15.93
2022-10-18T08:29:31.871Z,16.06
2022-10-18T08:34:34.875Z,16.15
2022-10-18T08:39:36.413Z,16.18
2022-10-18T08:44:45.785Z,16.15
2022-10-18T08:49:52.364Z,16.21
2022-10-18T08:55:08.057Z,16.22
2022-10-18T09:00:23.336Z,16.16
2022-10-18T09:05:43.212Z,16.25
2022-10-18T09:11:07.802Z,16.27
2022-10-18T09:16:20.358Z,16.34
2022-10-18T09:21:36.912Z,16.40
2022-10-18T09:26:47.190Z,16.45
2022-10-18T09:31:57.948Z,16.43
2022-10-18T09:37:00.018Z,16.42
2022-10-18T09:42:37.097Z,16.54
2022-10-18T09:47:42.550Z,16.57
2022-10-18T09:52:51.727Z,16.72
2022-10-18T09:58:02.625Z,16.72
2022-10-18T10:03:10.963Z,16.75
2022-10-18T10:08:12.659Z,16.87
2022-10-18T10:13:27.954Z,16.93
2022-10-18T10:18:31.291Z,16.97
2022-10-18T10:23:47.212Z,17.02
2022-10-18T10:28:49.970Z,17.01
2022-10-18T10:34:01.771Z,17.01
2022-10-18T10:39:09.892Z,17.02
2022-10-18T10:44:19.809Z,17.03
2022-10-18T10:49:40.752Z,16.85
2022-10-18T10:54:50.294Z,16.91
2022-10-18T10:59:55.711Z,16.82
2022-10-18T11:05:15.386Z,16.69
2022-10-18T11:10:23.106Z,16.71
2022-10-18T11:15:43.748Z,16.61
2022-10-18T11:21:11.798Z,16.58
2022-10-18T11:26:13.215Z,16.53
2022-10-18T11:31:24.804Z,16.59
2022-10-18T11:36:55.007Z,16.61
2022-10-18T11:42:21.312Z,16.69
2022-10-18T11:47:25.969Z,16.79
2022-10-18T11:52:36.409Z,16.54
2022-10-18T11:57:43.768Z,16.77
2022-10-18T12:03:15.642Z,16.73
2022-10-18T12:08:25.433Z,16.70
2022-10-18T12:13:36.587Z,16.74
2022-10-18T12:18:48.841Z,16.65
2022-10-18T12:24:03.405Z,16.69
2022-10-18T12:29:22.027Z,16.58
2022-10-18T12:34:23.775Z,16.58
2022-10-18T12:39:38.778Z,16.66
2022-10-18T12:45:01.723Z,16.69
2022-10-18T12:50:07.630Z,16.55
2022-10-18T12:55:16.949Z,16.51
2022-10-18T13:00:31.374Z,16.53
2022-10-18T13:06:06.416Z,16.51
2022-10-18T13:11:08.248Z,16.52
2022-10-18T13:16:14.836Z,16.68
2022-10-18T13:21:34.553Z,16.80
2022-10-18T13:26:42.825Z,16.64
2022-10-18T13:32:06.114Z,16.75
2022-10-18T13:37:10.590Z,16.65
2022-10-18T13:42:15.150Z,16.60
2022-10-18T13:47:33.787Z,16.66
2022-10-18T13:53:17.340Z,16.77
2022-10-18T13:58:48.771Z,16.71
2022-10-18T14:04:22.112Z,16.76
2022-10-18T14:09:40.242Z,16.67
2022-10-18T14:15:09.091Z,16.69
2022-10-18T14:20:18.843Z,16.83
2022-10-18T14:25:25.669Z,16.70
2022-10-18T14:30:27.171Z,16.76
2022-10-18T14:35:35.147Z,16.83
2022-10-18T14:40:39.143Z,16.85
2022-10-18T14:45:41.528Z,16.87
2022-10-18T14:50:44.888Z,16.75
2022-10-18T14:55:56.652Z,16.82
2022-10-18T15:00:59.099Z,16.70
2022-10-18T15:06:05.378Z,16.71
2022-10-18T15:11:10.510Z,16.66
2022-10-18T15:16:17.673Z,16.72
2022-10-18T15:21:23.781Z,16.73
2022-10-18T15:26:29.434Z,16.68
2022-10-18T15:31:35.658Z,16.61
2022-10-18T15:36:37.468Z,16.66
2022-10-18T15:41:41.666Z,16.59
2022-10-18T15:46:43.994Z,16.57
2022-10-18T15:51:49.904Z,16.55
2022-10-18T15:56:51.597Z,16.63
2022-10-18T16:01:53.425Z,16.58
2022-10-18T16:06:56.421Z,16.39
2022-10-18T16:11:58.500Z,16.38
2022-10-18T16:17:03.379Z,16.34
2022-10-18T16:22:07.155Z,16.22
2022-10-18T16:27:09.737Z,16.20
2022-10-18T16:32:11.261Z,16.20
2022-10-18T16:37:12.737Z,16.14
2022-10-18T16:42:14.240Z,16.10
2022-10-18T16:47:16.415Z,16.06
2022-10-18T16:52:17.914Z,16.07
2022-10-18T16:57:19.485Z,16.08
2022-10-18T17:02:20.985Z,16.14
2022-10-18T17:07:24.796Z,16.03
2022-10-18T17:12:26.272Z,15.95
2022-10-18T17:17:27.851Z,16.06
2022-10-18T17:22:29.349Z,15.97
2022-10-18T17:27:31.266Z,15.87
2022-10-18T17:32:33.261Z,15.71
2022-10-18T17:37:35.308Z,15.97
2022-10-18T17:42:37.162Z,15.85
2022-10-18T17:47:38.803Z,15.79
2022-10-18T17:52:47.208Z,15.87
2022-10-18T17:57:48.759Z,15.81
2022-10-18T18:02:50.288Z,15.66
2022-10-18T18:07:51.893Z,15.71
2022-10-18T18:12:53.355Z,15.66
2022-10-18T18:17:58.336Z,15.71
2022-10-18T18:23:00.173Z,15.73
2022-10-18T18:28:06.678Z,15.75
2022-10-18T18:33:09.080Z,15.77
2022-10-18T18:38:10.557Z,15.91
2022-10-18T18:43:23.213Z,15.87
2022-10-18T18:48:26.549Z,15.77
2022-10-18T18:53:29.756Z,15.64
2022-10-18T18:58:31.858Z,15.72
2022-10-18T19:03:33.607Z,15.70
2022-10-18T19:08:36.753Z,15.75
2022-10-18T19:13:38.239Z,15.65
2022-10-18T19:18:39.756Z,15.62
2022-10-18T19:23:41.236Z,15.74
2022-10-18T19:28:42.862Z,15.56
2022-10-18T19:33:55.616Z,15.61
2022-10-18T19:39:01.085Z,15.61
2022-10-18T19:44:02.750Z,15.76
2022-10-18T19:49:04.398Z,15.49
2022-10-18T19:54:05.978Z,15.37
2022-10-18T19:59:08.060Z,15.34
2022-10-18T20:04:10.387Z,15.41
2022-10-18T20:09:16.082Z,15.34
2022-10-18T20:14:21.200Z,15.32
2022-10-18T20:19:22.826Z,15.25
2022-10-18T20:24:24.353Z,15.14
2022-10-18T20:29:25.899Z,14.88
2022-10-18T20:34:28.525Z,15.02
2022-10-18T20:39:30.057Z,14.98
2022-10-18T20:44:33.792Z,14.64
2022-10-18T20:49:35.295Z,14.77
2022-10-18T20:54:36.873Z,14.89
2022-10-18T20:59:38.473Z,14.74
2022-10-18T21:04:42.193Z,14.89
2022-10-18T21:09:44.040Z,14.84
2022-10-18T21:14:45.583Z,14.78
2022-10-18T21:19:47.124Z,14.75
2022-10-18T21:24:50.593Z,14.80
2022-10-18T21:29:52.138Z,14.96
2022-10-18T21:34:53.666Z,14.91
2022-10-18T21:39:55.260Z,14.93
2022-10-18T21:44:56.868Z,14.98
2022-10-18T21:49:58.582Z,14.92
2022-10-18T21:55:00.190Z,14.97
2022-10-18T22:00:02.493Z,14.97
2022-10-18T22:05:08.208Z,15.04
2022-10-18T22:10:12.732Z,14.88
2022-10-18T22:15:14.352Z,14.80
2022-10-18T22:20:16.077Z,14.95
2022-10-18T22:25:17.720Z,14.69
2022-10-18T22:30:19.314Z,14.76
2022-10-18T22:35:20.817Z,14.80
2022-10-18T22:40:22.324Z,14.84
2022-10-18T22:45:23.847Z,14.83
2022-10-18T22:50:25.381Z,14.99
2022-10-18T22:55:26.836Z,14.79
2022-10-18T23:00:28.367Z,14.94
2022-10-18T23:05:29.934Z,14.90
2022-10-18T23:10:31.536Z,14.67
2022-10-18T23:15:33.607Z,14.82
2022-10-18T23:20:35.344Z,14.51
2022-10-18T23:25:37.421Z,14.69
2022-10-18T23:30:39.010Z,14.56
2022-10-18T23:35:40.512Z,14.62
2022-10-18T23:40:42.024Z,14.42
2022-10-18T23:45:44.408Z,14.49
2022-10-18T23:50:45.939Z,14.42
2022-10-18T23:56:01.070Z,14.29
